Wausau, Wisconsin
Current Conditions -  °F | °C
As of 9:54 AM on Thursday 23 Oct 2014 (Local Time) from KAUW Reporting Station
Light Rain Light Rain  
Wind Chill: 39°   Ceiling: 1700
Heat Index: 43°   Visibility: 7mi
Dew Point: 40°   Wind: 7mph
Humidity: 89%   Direction: 140°SE
Pressure: 30.07"   Gusts: NA
Location:  44.96°N, 89.63°W
Report Text: KAUW 231454Z AUTO 14006KT 7SM -RA OVC017 06/04 A3007 RMK AO2 RAB31 SLP194 P0000 60000 T00610044 56008
Loading
Personal Weather Stations






























Interactive Weather Map
Tropical Storm Tracking
New forecast layout! Learn more

10-Day Weather Forecast

Advertisements
Track Severe Weather on mobile